Terminal Aerodrome Forecast
Issued by NWS North Platte, NE

Home | Current Version | Previous Version | Text Only | Print | Product List | Glossary On
Versions: 1 2 3 4 5 6 7 8 9 10 11 12
118
FTUS43 KLBF 032320
TAFLBF
TAF
KLBF 032320Z 0400/0424 18007KT P6SM BKN200
     FM040400 26005KT P6SM SCT150
     FM041800 28009KT P6SM FEW200
     FM042200 24007KT P6SM FEW200=

USA.gov is the U.S. government's official web portal to all federal, state and local government web resources and services.